Terminal Aerodrome Forecast
Issued by NWS Jackson, KY

Home | Current Version | Previous Version | Text Only | Print | Product List | Glossary On
Versions: 1 2 3 4 5 6 7 8 9 10 11 12 13 14 15 16 17 18
507
FTUS43 KJKL 212338
TAFLOZ
TAF
KLOZ 212338Z 2200/2224 VRB06KT 6SM -SHRA BR VCTS SCT025 OVC060CB
     FM220400 VRB06KT P6SM VCSH BKN045
     FM220600 VRB03KT P6SM VCSH BKN025
     FM220900 32004KT P6SM BKN040
     FM221600 33005KT P6SM FEW150=

USA.gov is the U.S. government's official web portal to all federal, state and local government web resources and services.